DUB weather

Public forecast

Using degrees Celsius for public forecast. Weather courtesy of forecast.io.

Current aviation weather report (METAR) for Dublin Airport

Retrieved 2020/08/15 02:30 UTC (0 seconds ago):

EIDW 150230Z 03004KT 8000 FEW060 SCT240 13/13 Q1016 NOSIG

Aviation forecast (TAF) for Dublin Airport

Retrieved 2020-08-15 00:09 UTC (2 hours ago):

TAF EIDW 142300Z 1500/1524 VRB03KT 9999 FEW015 SCT025 TEMPO 1500/1504 35005KT PROB30 TEMPO 1500/1503 3000 BR TEMPO 1503/1509 3000 BR BKN005 PROB30 TEMPO 1503/1507 1500 BKN002 BECMG 1505/1507 06008KT PROB30 TEMPO 1509/1511 -SHRA BKN010 BECMG 1520/1522 01006KT TEMPO 1522/1524 3000 -RA BR BKN010